Radome Status


Time Cell Pressure Wind mph Temp Com Gen Blower 1 Blower 2 Blower 3 Trigger Alarms Txt
Local net InWc Avg Peak Avg F Pow Pow State/Spd/Secs State/Spd/Secs HowOn/AcOut/secs Event Present Cnt
06:00:02OFF 2.64 2.5 2.1 2.5 48.68ONOFFDwn/0/0Opr/1/233404-AC-OFF/0///0
06:01:02OFF 2.64 2.5 2.1 2.8 48.51ONOFFDwn/0/0Opr/1/233464-AC-OFF/0///0
06:02:06OFF 2.66 2.5 1.9 2.8 48.33ONOFFDwn/0/0Opr/1/233529-AC-OFF/0///0
06:03:07OFF 2.64 2.5 2.2 2.8 48.18ONOFFDwn/0/0Opr/1/233589-AC-OFF/0///0
06:04:07OFF 2.64 2.5 2.1 2.8 48.07ONOFFDwn/0/0Opr/1/233649-AC-OFF/0///0
06:05:08OFF 2.65 2.5 1.8 2.1 48.04ONOFFDwn/0/0Opr/1/233710-AC-OFF/0///0
06:06:08OFF 2.65 2.5 1.9 2.5 48.12ONOFFDwn/0/0Opr/1/233771-AC-OFF/0///0
06:07:09OFF 2.65 2.5 2.1 2.8 48.24ONOFFDwn/0/0Opr/1/233831-AC-OFF/0///0
06:08:09OFF 2.65 2.5 1.6 2.1 48.36ONOFFDwn/0/0Opr/1/233891-AC-OFF/0///0
06:09:09OFF 2.65 2.5 1.6 2.1 48.42ONOFFDwn/0/0Opr/1/233951-AC-OFF/0///0
06:10:13OFF 2.65 2.5 1.1 2.1 48.42ONOFFDwn/0/0Opr/1/234016-AC-OFF/0///0
06:11:14OFF 2.67 2.6 1.9 3.2 48.35ONOFFDwn/0/0Opr/1/234076-AC-OFF/0///0
06:12:14OFF 2.66 2.6 1.2 3.5 48.20ONOFFDwn/0/0Opr/1/234136-AC-OFF/0///0
06:13:14OFF 2.66 2.5 1.1 2.1 48.00ONOFFDwn/0/0Opr/1/234197-AC-OFF/0///0
06:14:14OFF 2.66 2.5 0.8 1.4 47.67ONOFFDwn/0/0Opr/1/234257-AC-OFF/0///0
06:15:15OFF 2.65 2.5 0.9 1.4 47.36ONOFFDwn/0/0Opr/1/234317-AC-OFF/0///0
06:16:16OFF 2.66 2.5 0.4 1.4 47.05ONOFFDwn/0/0Opr/1/234378-AC-OFF/0///0
06:17:20OFF 2.67 2.5 0.0 0.0 46.79ONOFFDwn/0/0Opr/1/234443-AC-OFF/0///0
06:18:20OFF 2.65 2.5 0.0 0.0 46.53ONOFFDwn/0/0Opr/1/234503-AC-OFF/0///0
06:19:21OFF 2.66 2.5 0.0 0.4 46.33ONOFFDwn/0/0Opr/1/234563-AC-OFF/0///0
06:20:22OFF 2.66 2.5 0.0 0.0 46.16ONOFFDwn/0/0Opr/1/234624-AC-OFF/0///0
06:21:22OFF 2.69 2.6 0.0 0.0 46.02ONOFFDwn/0/0Opr/1/234684-AC-OFF/0///0
06:22:22OFF 2.66 2.6 0.0 0.0 45.90ONOFFDwn/0/0Opr/1/234744-AC-OFF/0///0
06:23:26OFF 2.66 2.5 0.0 0.0 45.79ONOFFDwn/0/0Opr/1/234809-AC-OFF/0///0
06:24:26OFF 2.66 2.6 0.0 0.0 45.63ONOFFDwn/0/0Opr/1/234869-AC-OFF/0///0
06:25:27OFF 2.64 2.5 0.0 0.0 45.49ONOFFDwn/0/0Opr/1/234929-AC-OFF/0///0
06:26:27OFF 2.65 2.5 0.0 0.0 45.37ONOFFDwn/0/0Opr/1/234989-AC-OFF/0///0
06:27:27OFF 2.65 2.5 0.0 0.0 45.33ONOFFDwn/0/0Opr/1/235049-AC-OFF/0///0
06:28:27OFF 2.66 2.5 0.0 0.0 45.31ONOFFDwn/0/0Opr/1/235110-AC-OFF/0///0
06:29:28OFF 2.66 2.6 0.0 0.0 45.27ONOFFDwn/0/0Opr/1/235170-AC-OFF/0///0
06:30:28OFF 2.66 2.5 0.0 0.0 45.30ONOFFDwn/0/0Opr/1/235230-AC-OFF/0///0
06:31:28OFF 2.68 2.6 0.0 0.4 45.43ONOFFDwn/0/0Opr/1/235290-AC-OFF/0///0
06:32:32OFF 2.66 2.5 0.2 0.8 45.56ONOFFDwn/0/0Opr/1/235355-AC-OFF/0///0
06:33:33OFF 2.65 2.5 0.0 0.0 45.66ONOFFDwn/0/0Opr/1/235415-AC-OFF/0///0
06:34:34OFF 2.65 2.5 0.0 0.0 45.74ONOFFDwn/0/0Opr/1/235476-AC-OFF/0///0
06:35:38OFF 2.65 2.5 0.0 0.0 45.80ONOFFDwn/0/0Opr/1/235541-AC-OFF/0///0
06:36:38OFF 2.66 2.6 0.1 0.4 45.85ONOFFDwn/0/0Opr/1/235601-AC-OFF/0///0
06:37:39OFF 2.66 2.6 0.0 0.0 45.88ONOFFDwn/0/0Opr/1/235661-AC-OFF/0///0
06:38:39OFF 2.66 2.5 0.0 0.0 45.92ONOFFDwn/0/0Opr/1/235721-AC-OFF/0///0
06:39:40OFF 2.66 2.5 0.0 0.0 46.00ONOFFDwn/0/0Opr/1/235782-AC-OFF/0///0
06:40:44OFF 2.66 2.5 0.0 0.0 46.11ONOFFDwn/0/0Opr/1/235847-AC-OFF/0///0


File ends on 20140419
Logs also available for previous period,
or for other periods.

Blower States: Reseting, Stopped, Starting, Testing, Operating, Faulted, OffLine

Comments/Questions